sensor_id;sensor_type;location;lat;lon;timestamp;P1;durP1;ratioP1;P2;durP2;ratioP2
59271;SDS011;45043;51.068;7.026;2023-12-29T00:02:05;2.27;;;1.57;;
59271;SDS011;45043;51.068;7.026;2023-12-29T00:05:06;3.40;;;1.90;;
59271;SDS011;45043;51.068;7.026;2023-12-29T00:08:07;3.67;;;1.80;;
59271;SDS011;45043;51.068;7.026;2023-12-29T00:11:15;2.97;;;1.90;;
59271;SDS011;45043;51.068;7.026;2023-12-29T00:14:17;3.27;;;1.80;;
59271;SDS011;45043;51.068;7.026;2023-12-29T00:17:18;2.73;;;2.00;;
59271;SDS011;45043;51.068;7.026;2023-12-29T00:20:19;3.27;;;1.77;;
59271;SDS011;45043;51.068;7.026;2023-12-29T00:23:20;3.70;;;1.63;;
59271;SDS011;45043;51.068;7.026;2023-12-29T00:26:21;4.10;;;2.00;;
59271;SDS011;45043;51.068;7.026;2023-12-29T00:29:27;4.37;;;1.90;;
59271;SDS011;45043;51.068;7.026;2023-12-29T00:32:33;4.40;;;1.73;;
59271;SDS011;45043;51.068;7.026;2023-12-29T00:35:36;4.80;;;1.80;;
59271;SDS011;45043;51.068;7.026;2023-12-29T00:38:38;3.93;;;1.70;;
59271;SDS011;45043;51.068;7.026;2023-12-29T00:41:39;4.13;;;1.70;;
59271;SDS011;45043;51.068;7.026;2023-12-29T00:44:41;4.13;;;1.47;;
59271;SDS011;45043;51.068;7.026;2023-12-29T00:47:42;4.63;;;2.00;;
59271;SDS011;45043;51.068;7.026;2023-12-29T00:50:44;3.87;;;1.77;;
59271;SDS011;45043;51.068;7.026;2023-12-29T00:53:45;5.27;;;1.90;;
59271;SDS011;45043;51.068;7.026;2023-12-29T00:56:49;5.00;;;1.80;;
59271;SDS011;45043;51.068;7.026;2023-12-29T00:59:51;3.50;;;1.93;;
59271;SDS011;45043;51.068;7.026;2023-12-29T01:02:52;3.93;;;1.77;;
59271;SDS011;45043;51.068;7.026;2023-12-29T01:05:54;5.10;;;2.00;;
59271;SDS011;45043;51.068;7.026;2023-12-29T01:08:55;1.63;;;1.50;;
59271;SDS011;45043;51.068;7.026;2023-12-29T01:11:56;4.47;;;2.00;;
59271;SDS011;45043;51.068;7.026;2023-12-29T01:14:57;3.87;;;1.97;;
59271;SDS011;45043;51.068;7.026;2023-12-29T01:17:57;2.90;;;1.60;;
59271;SDS011;45043;51.068;7.026;2023-12-29T01:20:58;5.03;;;1.80;;
59271;SDS011;45043;51.068;7.026;2023-12-29T01:23:59;4.17;;;1.90;;
59271;SDS011;45043;51.068;7.026;2023-12-29T01:27:01;8.20;;;2.10;;
59271;SDS011;45043;51.068;7.026;2023-12-29T01:30:04;6.20;;;2.07;;
59271;SDS011;45043;51.068;7.026;2023-12-29T01:33:06;9.00;;;2.00;;
59271;SDS011;45043;51.068;7.026;2023-12-29T01:36:07;7.60;;;2.17;;
59271;SDS011;45043;51.068;7.026;2023-12-29T01:39:08;6.40;;;2.17;;
59271;SDS011;45043;51.068;7.026;2023-12-29T01:42:09;8.13;;;1.97;;
59271;SDS011;45043;51.068;7.026;2023-12-29T01:45:20;5.77;;;2.10;;
59271;SDS011;45043;51.068;7.026;2023-12-29T01:48:23;5.40;;;2.10;;
59271;SDS011;45043;51.068;7.026;2023-12-29T01:51:25;6.13;;;2.10;;
59271;SDS011;45043;51.068;7.026;2023-12-29T01:54:28;8.63;;;2.23;;
59271;SDS011;45043;51.068;7.026;2023-12-29T01:57:32;5.27;;;2.10;;
59271;SDS011;45043;51.068;7.026;2023-12-29T02:00:36;6.53;;;2.20;;
59271;SDS011;45043;51.068;7.026;2023-12-29T02:03:37;5.13;;;2.10;;
59271;SDS011;45043;51.068;7.026;2023-12-29T02:06:38;8.47;;;2.37;;
59271;SDS011;45043;51.068;7.026;2023-12-29T02:09:40;5.27;;;1.70;;
59271;SDS011;45043;51.068;7.026;2023-12-29T02:12:41;8.00;;;2.20;;
59271;SDS011;45043;51.068;7.026;2023-12-29T02:15:42;5.03;;;2.43;;
59271;SDS011;45043;51.068;7.026;2023-12-29T02:18:44;5.50;;;2.30;;
59271;SDS011;45043;51.068;7.026;2023-12-29T02:21:47;4.77;;;2.40;;
59271;SDS011;45043;51.068;7.026;2023-12-29T02:24:49;8.80;;;2.13;;
59271;SDS011;45043;51.068;7.026;2023-12-29T02:27:55;8.37;;;2.97;;
59271;SDS011;45043;51.068;7.026;2023-12-29T02:31:07;8.43;;;2.27;;
59271;SDS011;45043;51.068;7.026;2023-12-29T02:34:10;6.43;;;2.87;;
59271;SDS011;45043;51.068;7.026;2023-12-29T02:37:14;6.27;;;2.23;;
59271;SDS011;45043;51.068;7.026;2023-12-29T02:40:17;8.53;;;2.30;;
59271;SDS011;45043;51.068;7.026;2023-12-29T02:43:18;6.33;;;2.40;;
59271;SDS011;45043;51.068;7.026;2023-12-29T02:46:18;5.80;;;2.83;;
59271;SDS011;45043;51.068;7.026;2023-12-29T02:49:19;4.33;;;2.00;;
59271;SDS011;45043;51.068;7.026;2023-12-29T02:52:20;6.20;;;2.13;;
59271;SDS011;45043;51.068;7.026;2023-12-29T02:55:21;5.13;;;2.03;;
59271;SDS011;45043;51.068;7.026;2023-12-29T02:58:22;7.47;;;2.20;;
59271;SDS011;45043;51.068;7.026;2023-12-29T03:01:23;6.80;;;2.03;;
59271;SDS011;45043;51.068;7.026;2023-12-29T03:04:24;5.80;;;2.30;;
59271;SDS011;45043;51.068;7.026;2023-12-29T03:07:25;7.77;;;2.47;;
59271;SDS011;45043;51.068;7.026;2023-12-29T03:10:26;6.97;;;2.47;;
59271;SDS011;45043;51.068;7.026;2023-12-29T03:13:28;6.10;;;2.00;;
59271;SDS011;45043;51.068;7.026;2023-12-29T03:16:29;7.03;;;2.30;;
59271;SDS011;45043;51.068;7.026;2023-12-29T03:19:29;6.47;;;2.10;;
59271;SDS011;45043;51.068;7.026;2023-12-29T03:22:30;8.67;;;2.63;;
59271;SDS011;45043;51.068;7.026;2023-12-29T03:25:31;5.00;;;2.47;;
59271;SDS011;45043;51.068;7.026;2023-12-29T03:28:32;10.87;;;2.60;;
59271;SDS011;45043;51.068;7.026;2023-12-29T03:31:34;6.43;;;1.90;;
59271;SDS011;45043;51.068;7.026;2023-12-29T03:34:34;4.00;;;1.97;;
59271;SDS011;45043;51.068;7.026;2023-12-29T03:37:35;4.83;;;1.80;;
59271;SDS011;45043;51.068;7.026;2023-12-29T03:40:37;7.00;;;2.30;;
59271;SDS011;45043;51.068;7.026;2023-12-29T03:43:38;5.60;;;1.87;;
59271;SDS011;45043;51.068;7.026;2023-12-29T03:46:39;7.73;;;2.10;;
59271;SDS011;45043;51.068;7.026;2023-12-29T03:49:40;6.77;;;1.93;;
59271;SDS011;45043;51.068;7.026;2023-12-29T03:52:42;6.20;;;1.97;;
59271;SDS011;45043;51.068;7.026;2023-12-29T03:55:44;4.27;;;2.17;;
59271;SDS011;45043;51.068;7.026;2023-12-29T03:58:45;5.93;;;1.73;;
59271;SDS011;45043;51.068;7.026;2023-12-29T04:01:46;5.97;;;1.93;;
59271;SDS011;45043;51.068;7.026;2023-12-29T04:04:47;4.73;;;1.70;;
59271;SDS011;45043;51.068;7.026;2023-12-29T04:07:48;4.27;;;1.90;;
59271;SDS011;45043;51.068;7.026;2023-12-29T04:10:49;4.40;;;1.70;;
59271;SDS011;45043;51.068;7.026;2023-12-29T04:13:51;5.03;;;1.70;;
59271;SDS011;45043;51.068;7.026;2023-12-29T04:16:52;5.60;;;1.93;;
59271;SDS011;45043;51.068;7.026;2023-12-29T04:19:55;5.83;;;1.97;;
59271;SDS011;45043;51.068;7.026;2023-12-29T04:22:57;3.83;;;1.80;;
59271;SDS011;45043;51.068;7.026;2023-12-29T04:25:58;5.27;;;1.90;;
59271;SDS011;45043;51.068;7.026;2023-12-29T04:29:00;7.37;;;2.23;;
59271;SDS011;45043;51.068;7.026;2023-12-29T04:32:01;5.53;;;1.70;;
59271;SDS011;45043;51.068;7.026;2023-12-29T04:35:02;11.30;;;2.13;;
59271;SDS011;45043;51.068;7.026;2023-12-29T04:38:03;6.17;;;1.90;;
59271;SDS011;45043;51.068;7.026;2023-12-29T04:41:04;3.30;;;1.77;;
59271;SDS011;45043;51.068;7.026;2023-12-29T04:44:05;4.67;;;2.13;;
59271;SDS011;45043;51.068;7.026;2023-12-29T04:47:05;7.40;;;2.13;;
59271;SDS011;45043;51.068;7.026;2023-12-29T04:50:08;5.57;;;1.83;;
59271;SDS011;45043;51.068;7.026;2023-12-29T04:53:09;8.57;;;2.30;;
59271;SDS011;45043;51.068;7.026;2023-12-29T04:56:10;5.33;;;2.17;;
59271;SDS011;45043;51.068;7.026;2023-12-29T04:59:11;4.63;;;1.90;;
59271;SDS011;45043;51.068;7.026;2023-12-29T05:02:12;6.03;;;2.20;;
59271;SDS011;45043;51.068;7.026;2023-12-29T05:05:13;5.20;;;2.00;;
59271;SDS011;45043;51.068;7.026;2023-12-29T05:08:14;7.80;;;2.30;;
59271;SDS011;45043;51.068;7.026;2023-12-29T05:11:15;7.20;;;2.67;;
59271;SDS011;45043;51.068;7.026;2023-12-29T05:14:16;5.00;;;2.30;;
59271;SDS011;45043;51.068;7.026;2023-12-29T05:17:17;4.43;;;2.03;;
59271;SDS011;45043;51.068;7.026;2023-12-29T05:20:18;6.87;;;2.30;;
59271;SDS011;45043;51.068;7.026;2023-12-29T05:23:18;5.93;;;2.10;;
59271;SDS011;45043;51.068;7.026;2023-12-29T05:26:19;6.57;;;2.27;;
59271;SDS011;45043;51.068;7.026;2023-12-29T05:29:20;7.97;;;2.10;;
59271;SDS011;45043;51.068;7.026;2023-12-29T05:32:21;6.13;;;2.17;;
59271;SDS011;45043;51.068;7.026;2023-12-29T05:35:22;7.63;;;2.10;;
59271;SDS011;45043;51.068;7.026;2023-12-29T05:38:23;5.50;;;2.07;;
59271;SDS011;45043;51.068;7.026;2023-12-29T05:41:24;7.30;;;2.10;;
59271;SDS011;45043;51.068;7.026;2023-12-29T05:44:28;4.67;;;1.80;;
59271;SDS011;45043;51.068;7.026;2023-12-29T05:47:31;6.77;;;1.87;;
59271;SDS011;45043;51.068;7.026;2023-12-29T05:50:43;8.30;;;2.20;;
59271;SDS011;45043;51.068;7.026;2023-12-29T05:53:43;5.87;;;1.80;;
59271;SDS011;45043;51.068;7.026;2023-12-29T05:56:44;5.63;;;2.13;;
59271;SDS011;45043;51.068;7.026;2023-12-29T05:59:45;6.33;;;1.97;;
59271;SDS011;45043;51.068;7.026;2023-12-29T06:02:46;7.30;;;2.30;;
59271;SDS011;45043;51.068;7.026;2023-12-29T06:05:47;6.23;;;2.13;;
59271;SDS011;45043;51.068;7.026;2023-12-29T06:08:48;6.83;;;1.93;;
59271;SDS011;45043;51.068;7.026;2023-12-29T06:11:49;5.90;;;1.73;;
59271;SDS011;45043;51.068;7.026;2023-12-29T06:14:50;6.20;;;2.10;;
59271;SDS011;45043;51.068;7.026;2023-12-29T06:17:52;4.47;;;1.77;;
59271;SDS011;45043;51.068;7.026;2023-12-29T06:20:52;4.43;;;1.90;;
59271;SDS011;45043;51.068;7.026;2023-12-29T06:23:54;4.30;;;1.90;;
59271;SDS011;45043;51.068;7.026;2023-12-29T06:26:55;5.17;;;2.03;;
59271;SDS011;45043;51.068;7.026;2023-12-29T06:29:56;6.60;;;1.77;;
59271;SDS011;45043;51.068;7.026;2023-12-29T06:32:57;6.23;;;2.00;;
59271;SDS011;45043;51.068;7.026;2023-12-29T06:35:58;7.10;;;2.20;;
59271;SDS011;45043;51.068;7.026;2023-12-29T06:38:59;7.33;;;2.50;;
59271;SDS011;45043;51.068;7.026;2023-12-29T06:42:00;6.10;;;1.87;;
59271;SDS011;45043;51.068;7.026;2023-12-29T06:48:17;8.87;;;2.23;;
59271;SDS011;45043;51.068;7.026;2023-12-29T06:51:18;4.10;;;1.77;;
59271;SDS011;45043;51.068;7.026;2023-12-29T06:54:19;4.47;;;1.50;;
59271;SDS011;45043;51.068;7.026;2023-12-29T06:57:21;5.73;;;1.90;;
59271;SDS011;45043;51.068;7.026;2023-12-29T07:00:22;6.37;;;1.50;;
59271;SDS011;45043;51.068;7.026;2023-12-29T07:03:23;7.60;;;2.07;;
59271;SDS011;45043;51.068;7.026;2023-12-29T07:06:23;5.67;;;1.90;;
59271;SDS011;45043;51.068;7.026;2023-12-29T07:09:24;2.80;;;1.43;;
59271;SDS011;45043;51.068;7.026;2023-12-29T07:12:26;6.40;;;1.57;;
59271;SDS011;45043;51.068;7.026;2023-12-29T07:15:26;4.37;;;1.87;;
59271;SDS011;45043;51.068;7.026;2023-12-29T07:18:27;4.10;;;1.63;;
59271;SDS011;45043;51.068;7.026;2023-12-29T07:21:28;3.93;;;1.60;;
59271;SDS011;45043;51.068;7.026;2023-12-29T07:24:29;4.80;;;1.90;;
59271;SDS011;45043;51.068;7.026;2023-12-29T07:27:30;5.23;;;1.93;;
59271;SDS011;45043;51.068;7.026;2023-12-29T07:30:31;6.13;;;1.87;;
59271;SDS011;45043;51.068;7.026;2023-12-29T07:33:33;4.73;;;1.77;;
59271;SDS011;45043;51.068;7.026;2023-12-29T07:36:37;6.77;;;2.30;;
59271;SDS011;45043;51.068;7.026;2023-12-29T07:39:39;6.17;;;1.93;;
59271;SDS011;45043;51.068;7.026;2023-12-29T07:42:39;5.60;;;1.77;;
59271;SDS011;45043;51.068;7.026;2023-12-29T07:45:41;3.00;;;1.70;;
59271;SDS011;45043;51.068;7.026;2023-12-29T07:48:44;4.83;;;1.67;;
59271;SDS011;45043;51.068;7.026;2023-12-29T07:51:46;7.10;;;2.40;;
59271;SDS011;45043;51.068;7.026;2023-12-29T07:54:47;4.93;;;1.70;;
59271;SDS011;45043;51.068;7.026;2023-12-29T07:57:48;4.97;;;2.10;;
59271;SDS011;45043;51.068;7.026;2023-12-29T08:00:49;4.20;;;1.83;;
59271;SDS011;45043;51.068;7.026;2023-12-29T08:03:51;5.93;;;1.80;;
59271;SDS011;45043;51.068;7.026;2023-12-29T08:06:52;5.57;;;2.00;;
59271;SDS011;45043;51.068;7.026;2023-12-29T08:09:53;5.67;;;1.77;;
59271;SDS011;45043;51.068;7.026;2023-12-29T08:12:54;4.80;;;1.73;;
59271;SDS011;45043;51.068;7.026;2023-12-29T08:15:55;5.63;;;1.70;;
59271;SDS011;45043;51.068;7.026;2023-12-29T08:18:56;3.87;;;1.80;;
59271;SDS011;45043;51.068;7.026;2023-12-29T08:21:57;5.13;;;1.90;;
59271;SDS011;45043;51.068;7.026;2023-12-29T08:24:58;6.90;;;2.03;;
59271;SDS011;45043;51.068;7.026;2023-12-29T08:27:58;5.43;;;1.40;;
59271;SDS011;45043;51.068;7.026;2023-12-29T08:30:59;4.17;;;1.53;;
59271;SDS011;45043;51.068;7.026;2023-12-29T08:34:01;4.93;;;2.13;;
59271;SDS011;45043;51.068;7.026;2023-12-29T08:37:02;4.60;;;1.73;;
59271;SDS011;45043;51.068;7.026;2023-12-29T08:40:03;4.40;;;1.87;;
59271;SDS011;45043;51.068;7.026;2023-12-29T08:43:05;5.70;;;1.90;;
59271;SDS011;45043;51.068;7.026;2023-12-29T08:46:07;6.20;;;1.70;;
59271;SDS011;45043;51.068;7.026;2023-12-29T08:49:08;6.03;;;2.17;;
59271;SDS011;45043;51.068;7.026;2023-12-29T08:52:09;8.20;;;2.30;;
59271;SDS011;45043;51.068;7.026;2023-12-29T08:55:10;6.93;;;2.17;;
59271;SDS011;45043;51.068;7.026;2023-12-29T09:01:15;4.03;;;1.80;;
59271;SDS011;45043;51.068;7.026;2023-12-29T09:04:16;5.70;;;2.23;;
59271;SDS011;45043;51.068;7.026;2023-12-29T09:07:17;3.67;;;1.97;;
59271;SDS011;45043;51.068;7.026;2023-12-29T09:10:18;8.07;;;2.30;;
59271;SDS011;45043;51.068;7.026;2023-12-29T09:13:19;6.50;;;2.20;;
59271;SDS011;45043;51.068;7.026;2023-12-29T09:16:22;7.57;;;2.30;;
59271;SDS011;45043;51.068;7.026;2023-12-29T09:19:24;9.97;;;2.67;;
59271;SDS011;45043;51.068;7.026;2023-12-29T09:22:26;5.03;;;2.00;;
59271;SDS011;45043;51.068;7.026;2023-12-29T09:25:29;6.63;;;2.20;;
59271;SDS011;45043;51.068;7.026;2023-12-29T09:28:33;4.27;;;2.03;;
59271;SDS011;45043;51.068;7.026;2023-12-29T09:31:34;4.40;;;2.00;;
59271;SDS011;45043;51.068;7.026;2023-12-29T09:34:36;6.13;;;2.60;;
59271;SDS011;45043;51.068;7.026;2023-12-29T09:37:37;6.90;;;2.07;;
59271;SDS011;45043;51.068;7.026;2023-12-29T09:40:38;6.40;;;2.00;;
59271;SDS011;45043;51.068;7.026;2023-12-29T09:43:40;8.53;;;2.53;;
59271;SDS011;45043;51.068;7.026;2023-12-29T09:46:42;6.73;;;2.03;;
59271;SDS011;45043;51.068;7.026;2023-12-29T09:49:43;4.53;;;1.90;;
59271;SDS011;45043;51.068;7.026;2023-12-29T09:52:44;5.07;;;2.10;;
59271;SDS011;45043;51.068;7.026;2023-12-29T09:55:49;7.20;;;2.10;;
59271;SDS011;45043;51.068;7.026;2023-12-29T09:58:51;5.03;;;1.77;;
59271;SDS011;45043;51.068;7.026;2023-12-29T10:01:54;5.03;;;1.80;;
59271;SDS011;45043;51.068;7.026;2023-12-29T10:04:56;6.03;;;2.00;;
59271;SDS011;45043;51.068;7.026;2023-12-29T10:07:57;4.53;;;2.00;;
59271;SDS011;45043;51.068;7.026;2023-12-29T10:11:02;8.13;;;2.67;;
59271;SDS011;45043;51.068;7.026;2023-12-29T10:14:11;5.17;;;2.00;;
59271;SDS011;45043;51.068;7.026;2023-12-29T10:17:43;3.23;;;1.60;;
59271;SDS011;45043;51.068;7.026;2023-12-29T10:20:55;3.30;;;1.40;;
59271;SDS011;45043;51.068;7.026;2023-12-29T10:24:12;4.07;;;1.60;;
59271;SDS011;45043;51.068;7.026;2023-12-29T10:27:21;4.40;;;1.60;;
59271;SDS011;45043;51.068;7.026;2023-12-29T10:30:23;2.10;;;1.40;;
59271;SDS011;45043;51.068;7.026;2023-12-29T10:33:24;3.20;;;1.50;;
59271;SDS011;45043;51.068;7.026;2023-12-29T10:36:25;3.30;;;1.30;;
59271;SDS011;45043;51.068;7.026;2023-12-29T10:39:27;2.53;;;1.20;;
59271;SDS011;45043;51.068;7.026;2023-12-29T10:42:29;1.70;;;1.00;;
59271;SDS011;45043;51.068;7.026;2023-12-29T10:45:30;2.67;;;1.07;;
59271;SDS011;45043;51.068;7.026;2023-12-29T10:48:31;3.17;;;1.77;;
59271;SDS011;45043;51.068;7.026;2023-12-29T10:51:32;1.43;;;0.87;;
59271;SDS011;45043;51.068;7.026;2023-12-29T10:54:33;2.97;;;1.20;;
59271;SDS011;45043;51.068;7.026;2023-12-29T10:57:34;2.27;;;1.23;;
59271;SDS011;45043;51.068;7.026;2023-12-29T11:00:36;2.80;;;1.20;;
59271;SDS011;45043;51.068;7.026;2023-12-29T11:03:37;2.37;;;1.10;;
59271;SDS011;45043;51.068;7.026;2023-12-29T11:06:41;2.37;;;1.20;;
59271;SDS011;45043;51.068;7.026;2023-12-29T11:09:46;2.70;;;1.40;;
59271;SDS011;45043;51.068;7.026;2023-12-29T11:12:47;4.60;;;1.57;;
59271;SDS011;45043;51.068;7.026;2023-12-29T11:15:49;2.03;;;0.83;;
59271;SDS011;45043;51.068;7.026;2023-12-29T11:18:52;2.23;;;1.10;;
59271;SDS011;45043;51.068;7.026;2023-12-29T11:21:56;1.67;;;1.00;;
59271;SDS011;45043;51.068;7.026;2023-12-29T11:24:58;2.97;;;1.20;;
59271;SDS011;45043;51.068;7.026;2023-12-29T11:28:00;1.43;;;0.90;;
59271;SDS011;45043;51.068;7.026;2023-12-29T11:31:01;2.97;;;1.70;;
59271;SDS011;45043;51.068;7.026;2023-12-29T11:34:37;3.37;;;1.20;;
59271;SDS011;45043;51.068;7.026;2023-12-29T11:37:43;3.70;;;1.30;;
59271;SDS011;45043;51.068;7.026;2023-12-29T11:41:18;2.63;;;1.30;;
59271;SDS011;45043;51.068;7.026;2023-12-29T11:44:26;3.53;;;1.20;;
59271;SDS011;45043;51.068;7.026;2023-12-29T11:47:37;2.03;;;1.30;;
59271;SDS011;45043;51.068;7.026;2023-12-29T11:50:38;2.73;;;1.30;;
59271;SDS011;45043;51.068;7.026;2023-12-29T11:53:43;2.70;;;1.30;;
59271;SDS011;45043;51.068;7.026;2023-12-29T11:56:46;2.97;;;1.13;;
59271;SDS011;45043;51.068;7.026;2023-12-29T11:59:47;3.47;;;1.50;;
59271;SDS011;45043;51.068;7.026;2023-12-29T12:02:48;2.90;;;1.10;;
59271;SDS011;45043;51.068;7.026;2023-12-29T12:05:51;2.40;;;1.33;;
59271;SDS011;45043;51.068;7.026;2023-12-29T12:08:59;2.33;;;1.20;;
59271;SDS011;45043;51.068;7.026;2023-12-29T12:15:39;3.80;;;1.40;;
59271;SDS011;45043;51.068;7.026;2023-12-29T12:18:41;2.20;;;1.17;;
59271;SDS011;45043;51.068;7.026;2023-12-29T12:21:42;1.63;;;1.10;;
59271;SDS011;45043;51.068;7.026;2023-12-29T12:24:47;2.03;;;1.00;;
59271;SDS011;45043;51.068;7.026;2023-12-29T12:27:48;4.03;;;1.20;;
59271;SDS011;45043;51.068;7.026;2023-12-29T12:30:50;1.70;;;1.17;;
59271;SDS011;45043;51.068;7.026;2023-12-29T12:33:54;2.13;;;1.20;;
59271;SDS011;45043;51.068;7.026;2023-12-29T12:36:58;1.23;;;0.80;;
59271;SDS011;45043;51.068;7.026;2023-12-29T12:40:03;1.93;;;0.83;;
59271;SDS011;45043;51.068;7.026;2023-12-29T12:43:04;2.40;;;0.97;;
59271;SDS011;45043;51.068;7.026;2023-12-29T12:46:07;1.77;;;1.00;;
59271;SDS011;45043;51.068;7.026;2023-12-29T12:49:10;2.13;;;0.90;;
59271;SDS011;45043;51.068;7.026;2023-12-29T12:52:12;2.17;;;0.90;;
59271;SDS011;45043;51.068;7.026;2023-12-29T12:55:12;2.00;;;0.90;;
59271;SDS011;45043;51.068;7.026;2023-12-29T12:58:15;1.37;;;1.00;;
59271;SDS011;45043;51.068;7.026;2023-12-29T13:01:16;1.70;;;0.97;;
59271;SDS011;45043;51.068;7.026;2023-12-29T13:04:17;2.57;;;0.90;;
59271;SDS011;45043;51.068;7.026;2023-12-29T13:07:18;1.80;;;0.90;;
59271;SDS011;45043;51.068;7.026;2023-12-29T13:10:19;1.80;;;1.10;;
59271;SDS011;45043;51.068;7.026;2023-12-29T13:13:20;1.73;;;0.90;;
59271;SDS011;45043;51.068;7.026;2023-12-29T13:16:28;1.90;;;1.00;;
59271;SDS011;45043;51.068;7.026;2023-12-29T13:19:38;2.50;;;1.20;;
59271;SDS011;45043;51.068;7.026;2023-12-29T13:22:39;0.97;;;0.90;;
59271;SDS011;45043;51.068;7.026;2023-12-29T13:25:40;2.03;;;0.80;;
59271;SDS011;45043;51.068;7.026;2023-12-29T13:28:43;2.20;;;0.90;;
59271;SDS011;45043;51.068;7.026;2023-12-29T13:31:45;1.77;;;0.80;;
59271;SDS011;45043;51.068;7.026;2023-12-29T13:38:28;2.07;;;0.90;;
59271;SDS011;45043;51.068;7.026;2023-12-29T13:41:37;1.37;;;0.80;;
59271;SDS011;45043;51.068;7.026;2023-12-29T13:44:39;2.50;;;0.80;;
59271;SDS011;45043;51.068;7.026;2023-12-29T13:47:43;4.73;;;1.03;;
59271;SDS011;45043;51.068;7.026;2023-12-29T13:50:46;1.90;;;0.70;;
59271;SDS011;45043;51.068;7.026;2023-12-29T13:53:48;2.60;;;1.23;;
59271;SDS011;45043;51.068;7.026;2023-12-29T13:56:52;1.07;;;0.83;;
59271;SDS011;45043;51.068;7.026;2023-12-29T13:59:54;0.93;;;0.83;;
59271;SDS011;45043;51.068;7.026;2023-12-29T14:06:00;2.43;;;1.07;;
59271;SDS011;45043;51.068;7.026;2023-12-29T14:09:04;1.97;;;0.90;;
59271;SDS011;45043;51.068;7.026;2023-12-29T14:12:05;1.73;;;0.90;;
59271;SDS011;45043;51.068;7.026;2023-12-29T14:15:07;0.90;;;0.80;;
59271;SDS011;45043;51.068;7.026;2023-12-29T14:24:32;1.70;;;0.80;;
59271;SDS011;45043;51.068;7.026;2023-12-29T14:27:34;0.60;;;0.53;;
59271;SDS011;45043;51.068;7.026;2023-12-29T14:30:35;2.47;;;1.10;;
59271;SDS011;45043;51.068;7.026;2023-12-29T14:33:36;2.10;;;1.50;;
59271;SDS011;45043;51.068;7.026;2023-12-29T14:36:38;0.63;;;0.63;;
59271;SDS011;45043;51.068;7.026;2023-12-29T14:39:40;1.27;;;1.03;;
59271;SDS011;45043;51.068;7.026;2023-12-29T14:42:41;1.07;;;0.97;;
59271;SDS011;45043;51.068;7.026;2023-12-29T14:45:42;1.83;;;0.90;;
59271;SDS011;45043;51.068;7.026;2023-12-29T14:48:43;1.00;;;0.90;;
59271;SDS011;45043;51.068;7.026;2023-12-29T14:51:44;1.67;;;1.13;;
59271;SDS011;45043;51.068;7.026;2023-12-29T14:54:45;1.10;;;0.90;;
59271;SDS011;45043;51.068;7.026;2023-12-29T14:57:46;1.93;;;0.97;;
59271;SDS011;45043;51.068;7.026;2023-12-29T15:00:47;2.00;;;1.00;;
59271;SDS011;45043;51.068;7.026;2023-12-29T15:03:48;0.80;;;0.80;;
59271;SDS011;45043;51.068;7.026;2023-12-29T15:06:49;2.33;;;1.10;;
59271;SDS011;45043;51.068;7.026;2023-12-29T15:10:01;1.67;;;1.07;;
59271;SDS011;45043;51.068;7.026;2023-12-29T15:13:02;1.23;;;0.70;;
59271;SDS011;45043;51.068;7.026;2023-12-29T15:16:04;1.13;;;1.03;;
59271;SDS011;45043;51.068;7.026;2023-12-29T15:19:07;1.07;;;0.80;;
59271;SDS011;45043;51.068;7.026;2023-12-29T15:22:09;0.90;;;0.67;;
59271;SDS011;45043;51.068;7.026;2023-12-29T15:25:10;2.40;;;1.20;;
59271;SDS011;45043;51.068;7.026;2023-12-29T15:28:12;1.23;;;1.13;;
59271;SDS011;45043;51.068;7.026;2023-12-29T15:31:12;1.87;;;1.13;;
59271;SDS011;45043;51.068;7.026;2023-12-29T15:34:14;1.17;;;0.80;;
59271;SDS011;45043;51.068;7.026;2023-12-29T15:37:15;0.93;;;0.80;;
59271;SDS011;45043;51.068;7.026;2023-12-29T15:40:16;0.83;;;0.83;;
59271;SDS011;45043;51.068;7.026;2023-12-29T15:43:17;0.90;;;0.70;;
59271;SDS011;45043;51.068;7.026;2023-12-29T15:46:18;1.97;;;1.13;;
59271;SDS011;45043;51.068;7.026;2023-12-29T15:49:23;2.27;;;1.33;;
59271;SDS011;45043;51.068;7.026;2023-12-29T15:52:24;1.30;;;0.97;;
59271;SDS011;45043;51.068;7.026;2023-12-29T15:55:27;1.13;;;0.93;;
59271;SDS011;45043;51.068;7.026;2023-12-29T15:58:28;3.37;;;0.90;;
59271;SDS011;45043;51.068;7.026;2023-12-29T16:01:29;1.33;;;1.07;;
59271;SDS011;45043;51.068;7.026;2023-12-29T16:04:31;0.70;;;0.70;;
59271;SDS011;45043;51.068;7.026;2023-12-29T16:07:33;1.17;;;1.00;;
59271;SDS011;45043;51.068;7.026;2023-12-29T16:10:35;1.47;;;0.90;;
59271;SDS011;45043;51.068;7.026;2023-12-29T16:13:36;0.70;;;0.70;;
59271;SDS011;45043;51.068;7.026;2023-12-29T16:16:39;1.00;;;0.90;;
59271;SDS011;45043;51.068;7.026;2023-12-29T16:19:41;0.97;;;0.97;;
59271;SDS011;45043;51.068;7.026;2023-12-29T16:22:42;1.33;;;1.03;;
59271;SDS011;45043;51.068;7.026;2023-12-29T16:25:44;0.90;;;0.60;;
59271;SDS011;45043;51.068;7.026;2023-12-29T16:28:45;1.57;;;1.13;;
59271;SDS011;45043;51.068;7.026;2023-12-29T16:31:47;1.23;;;0.80;;
59271;SDS011;45043;51.068;7.026;2023-12-29T16:34:48;2.30;;;0.97;;
59271;SDS011;45043;51.068;7.026;2023-12-29T16:37:49;1.43;;;1.03;;
59271;SDS011;45043;51.068;7.026;2023-12-29T16:40:51;1.57;;;1.00;;
59271;SDS011;45043;51.068;7.026;2023-12-29T16:43:53;1.93;;;1.10;;
59271;SDS011;45043;51.068;7.026;2023-12-29T16:46:54;1.40;;;1.00;;
59271;SDS011;45043;51.068;7.026;2023-12-29T16:49:55;1.20;;;1.10;;
59271;SDS011;45043;51.068;7.026;2023-12-29T16:52:57;0.87;;;0.87;;
59271;SDS011;45043;51.068;7.026;2023-12-29T16:55:57;1.83;;;1.20;;
59271;SDS011;45043;51.068;7.026;2023-12-29T16:58:59;1.63;;;1.00;;
59271;SDS011;45043;51.068;7.026;2023-12-29T17:02:01;3.77;;;1.07;;
59271;SDS011;45043;51.068;7.026;2023-12-29T17:05:07;2.77;;;1.70;;
59271;SDS011;45043;51.068;7.026;2023-12-29T17:08:11;1.53;;;1.43;;
59271;SDS011;45043;51.068;7.026;2023-12-29T17:11:13;1.23;;;1.17;;
59271;SDS011;45043;51.068;7.026;2023-12-29T17:14:14;2.70;;;1.17;;
59271;SDS011;45043;51.068;7.026;2023-12-29T17:17:14;2.00;;;1.30;;
59271;SDS011;45043;51.068;7.026;2023-12-29T17:20:15;2.07;;;1.30;;
59271;SDS011;45043;51.068;7.026;2023-12-29T17:23:16;2.27;;;1.13;;
59271;SDS011;45043;51.068;7.026;2023-12-29T17:26:17;1.47;;;1.13;;
59271;SDS011;45043;51.068;7.026;2023-12-29T17:29:20;2.97;;;1.30;;
59271;SDS011;45043;51.068;7.026;2023-12-29T17:32:21;3.90;;;1.23;;
59271;SDS011;45043;51.068;7.026;2023-12-29T17:35:23;1.10;;;0.90;;
59271;SDS011;45043;51.068;7.026;2023-12-29T17:38:25;2.43;;;1.03;;
59271;SDS011;45043;51.068;7.026;2023-12-29T17:41:27;1.30;;;1.20;;
59271;SDS011;45043;51.068;7.026;2023-12-29T17:44:28;1.97;;;1.07;;
59271;SDS011;45043;51.068;7.026;2023-12-29T17:47:30;1.77;;;1.50;;
59271;SDS011;45043;51.068;7.026;2023-12-29T17:50:31;2.23;;;1.30;;
59271;SDS011;45043;51.068;7.026;2023-12-29T17:53:32;2.73;;;1.43;;
59271;SDS011;45043;51.068;7.026;2023-12-29T17:56:33;2.00;;;1.03;;
59271;SDS011;45043;51.068;7.026;2023-12-29T17:59:34;3.30;;;1.90;;
59271;SDS011;45043;51.068;7.026;2023-12-29T18:02:35;2.90;;;1.40;;
59271;SDS011;45043;51.068;7.026;2023-12-29T18:05:36;2.23;;;1.50;;
59271;SDS011;45043;51.068;7.026;2023-12-29T18:08:38;2.87;;;1.50;;
59271;SDS011;45043;51.068;7.026;2023-12-29T18:11:41;5.00;;;1.73;;
59271;SDS011;45043;51.068;7.026;2023-12-29T18:14:43;3.20;;;1.50;;
59271;SDS011;45043;51.068;7.026;2023-12-29T18:17:45;2.87;;;1.60;;
59271;SDS011;45043;51.068;7.026;2023-12-29T18:20:46;2.20;;;1.50;;
59271;SDS011;45043;51.068;7.026;2023-12-29T18:23:49;3.23;;;1.70;;
59271;SDS011;45043;51.068;7.026;2023-12-29T18:26:50;3.20;;;1.50;;
59271;SDS011;45043;51.068;7.026;2023-12-29T18:29:51;3.77;;;1.87;;
59271;SDS011;45043;51.068;7.026;2023-12-29T18:32:52;3.90;;;1.80;;
59271;SDS011;45043;51.068;7.026;2023-12-29T18:35:53;3.37;;;1.77;;
59271;SDS011;45043;51.068;7.026;2023-12-29T18:38:56;4.87;;;2.00;;
59271;SDS011;45043;51.068;7.026;2023-12-29T18:41:58;4.90;;;1.83;;